Hebron, South Carolina
Current Conditions -  °F | °C
As of 12:55 PM on Saturday 20 Dec 2014 (Local Time) from KCKI Reporting Station
Moderate Rain Moderate Rain  
Wind Chill: 50°   Ceiling: NA
Heat Index: 50°   Visibility: 10mi
Dew Point: 50°   Wind: 0mph
Humidity: 100%   Direction: NA
Pressure: 30.21"   Gusts: NA
Location:  33.8014°N, 79.8006°W
Report Text: KCKI 201755Z AUTO 00000KT 10SM RA 10/10 A3021 RMK AO2 P0002
Loading
Personal Weather Stations






























Interactive Weather Map New forecast layout! Learn more

10-Day Weather Forecast

Advertisements
Track Severe Weather on mobile